createdAt,value
2023-03-07T00:00:17.809Z,3.17
2023-03-07T00:02:45.280Z,2.93
2023-03-07T00:05:14.946Z,2.43
2023-03-07T00:07:42.344Z,2.87
2023-03-07T00:10:10.879Z,3.10
2023-03-07T00:12:39.371Z,1.80
2023-03-07T00:15:08.136Z,3.60
2023-03-07T00:17:39.637Z,3.53
2023-03-07T00:20:08.329Z,2.97
2023-03-07T00:22:36.199Z,5.40
2023-03-07T00:25:04.764Z,2.00
2023-03-07T00:27:34.133Z,3.77
2023-03-07T00:30:04.161Z,4.03
2023-03-07T00:32:32.147Z,3.37
2023-03-07T00:35:00.669Z,4.53
2023-03-07T00:37:28.040Z,3.73
2023-03-07T00:39:55.195Z,4.90
2023-03-07T00:42:22.381Z,2.37
2023-03-07T00:44:49.578Z,5.60
2023-03-07T00:47:16.891Z,6.03
2023-03-07T00:49:44.369Z,4.30
2023-03-07T00:52:12.002Z,4.37
2023-03-07T00:54:39.509Z,4.47
2023-03-07T00:57:07.122Z,5.63
2023-03-07T00:59:34.411Z,6.70
2023-03-07T01:02:01.770Z,5.67
2023-03-07T01:04:29.130Z,5.40
2023-03-07T01:06:56.395Z,4.73
2023-03-07T01:09:23.794Z,4.53
2023-03-07T01:11:51.376Z,5.67
2023-03-07T01:14:19.108Z,5.20
2023-03-07T01:16:46.283Z,5.27
2023-03-07T01:19:13.921Z,5.23
2023-03-07T01:21:42.997Z,7.30
2023-03-07T01:24:14.317Z,6.10
2023-03-07T01:26:42.944Z,6.43
2023-03-07T01:29:11.849Z,6.70
2023-03-07T01:31:39.181Z,6.30
2023-03-07T01:34:06.768Z,5.33
2023-03-07T01:36:37.390Z,7.20
2023-03-07T01:39:15.031Z,6.70
2023-03-07T01:41:52.757Z,5.77
2023-03-07T01:44:25.937Z,7.43
2023-03-07T01:46:57.413Z,9.00
2023-03-07T01:49:37.379Z,7.23
2023-03-07T01:52:38.524Z,6.30
2023-03-07T01:55:23.315Z,8.20
2023-03-07T01:57:54.754Z,10.90
2023-03-07T02:00:28.764Z,8.90
2023-03-07T02:03:20.490Z,10.60
2023-03-07T02:05:53.482Z,9.83
2023-03-07T02:08:24.524Z,11.90
2023-03-07T02:10:52.488Z,9.87
2023-03-07T02:13:19.869Z,12.47
2023-03-07T02:15:47.881Z,13.13
2023-03-07T02:18:20.355Z,14.03
2023-03-07T02:21:04.309Z,12.53
2023-03-07T02:24:18.828Z,14.87
2023-03-07T02:26:48.683Z,12.90
2023-03-07T02:29:16.152Z,14.73
2023-03-07T02:31:47.121Z,13.27
2023-03-07T02:34:24.240Z,14.63
2023-03-07T02:37:18.019Z,15.07
2023-03-07T02:39:47.517Z,16.27
2023-03-07T02:42:27.187Z,16.90
2023-03-07T02:45:14.343Z,17.20
2023-03-07T02:47:43.459Z,17.40
2023-03-07T02:50:15.214Z,19.97
2023-03-07T02:52:45.637Z,20.27
2023-03-07T02:55:13.847Z,21.70
2023-03-07T02:57:47.810Z,22.60
2023-03-07T03:00:15.688Z,20.20
2023-03-07T03:02:42.932Z,22.27
2023-03-07T03:05:10.192Z,21.33
2023-03-07T03:07:37.589Z,26.73
2023-03-07T03:10:06.100Z,24.30
2023-03-07T03:12:34.104Z,24.70
2023-03-07T03:15:02.230Z,27.73
2023-03-07T03:17:30.030Z,25.93
2023-03-07T03:19:57.944Z,30.20
2023-03-07T03:22:25.043Z,39.10
2023-03-07T03:24:52.247Z,33.33
2023-03-07T03:27:20.593Z,31.90
2023-03-07T03:29:53.417Z,32.87
2023-03-07T03:32:20.579Z,34.77
2023-03-07T03:34:47.764Z,35.50
2023-03-07T03:37:14.926Z,37.43
2023-03-07T03:39:42.705Z,38.37
2023-03-07T03:42:11.953Z,36.03
2023-03-07T03:44:39.149Z,37.17
2023-03-07T03:47:06.307Z,37.67
2023-03-07T03:49:33.704Z,34.90
2023-03-07T03:52:00.988Z,41.50
2023-03-07T03:54:28.304Z,38.23
2023-03-07T03:56:57.432Z,41.33
2023-03-07T03:59:24.578Z,37.33
2023-03-07T04:01:52.084Z,47.93
2023-03-07T04:04:19.849Z,41.23
2023-03-07T04:06:47.255Z,41.80
2023-03-07T04:09:15.236Z,44.90
2023-03-07T04:11:46.217Z,43.93
2023-03-07T04:14:13.822Z,38.93
2023-03-07T04:16:41.110Z,44.77
2023-03-07T04:19:12.953Z,43.90
2023-03-07T04:21:40.974Z,45.90
2023-03-07T04:24:09.434Z,41.73
2023-03-07T04:26:36.913Z,44.73
2023-03-07T04:29:04.419Z,50.47
2023-03-07T04:31:42.851Z,45.00
2023-03-07T04:34:10.997Z,47.23
2023-03-07T04:36:38.154Z,45.13
2023-03-07T04:39:06.281Z,48.87
2023-03-07T04:41:34.888Z,43.67
2023-03-07T04:44:17.299Z,49.50
2023-03-07T04:46:44.558Z,48.83
2023-03-07T04:49:12.083Z,44.90
2023-03-07T04:51:43.001Z,44.07
2023-03-07T04:54:11.598Z,51.27
2023-03-07T04:56:39.220Z,50.60
2023-03-07T04:59:06.822Z,48.23
2023-03-07T05:01:33.918Z,49.57
2023-03-07T05:04:01.788Z,44.60
2023-03-07T05:06:29.032Z,44.47
2023-03-07T05:08:56.285Z,45.80
2023-03-07T05:11:23.442Z,49.50
2023-03-07T05:13:52.227Z,46.63
2023-03-07T05:16:22.147Z,50.07
2023-03-07T05:18:49.729Z,49.60
2023-03-07T05:21:17.606Z,53.37
2023-03-07T05:23:45.212Z,52.10
2023-03-07T05:26:13.282Z,52.50
2023-03-07T05:28:41.121Z,49.63
2023-03-07T05:31:08.360Z,50.67
2023-03-07T05:33:35.614Z,52.47
2023-03-07T05:36:05.327Z,48.43
2023-03-07T05:38:33.265Z,46.23
2023-03-07T05:41:01.336Z,56.03
2023-03-07T05:43:28.795Z,51.33
2023-03-07T05:46:00.551Z,50.80
2023-03-07T05:48:28.006Z,50.63
2023-03-07T05:50:55.233Z,50.40
2023-03-07T05:53:22.414Z,47.90
2023-03-07T05:55:50.270Z,49.00
2023-03-07T05:58:19.047Z,49.40
2023-03-07T06:00:49.554Z,50.90
2023-03-07T06:03:18.377Z,44.47
2023-03-07T06:05:49.578Z,43.60
2023-03-07T06:08:17.155Z,47.83
2023-03-07T06:10:44.901Z,47.27
2023-03-07T06:13:20.085Z,48.73
2023-03-07T06:15:53.459Z,49.60
2023-03-07T06:18:22.878Z,51.30
2023-03-07T06:21:02.469Z,38.17
2023-03-07T06:23:36.292Z,47.73
2023-03-07T06:26:08.375Z,42.70
2023-03-07T06:28:40.871Z,42.97
2023-03-07T06:31:15.652Z,43.17
2023-03-07T06:33:44.560Z,41.83
2023-03-07T06:36:16.017Z,44.73
2023-03-07T06:38:46.334Z,36.57
2023-03-07T06:41:14.288Z,45.07
2023-03-07T06:43:42.071Z,39.80
2023-03-07T06:46:09.457Z,37.23
2023-03-07T06:48:40.552Z,34.73
2023-03-07T06:51:12.299Z,35.73
2023-03-07T06:53:42.216Z,29.47
2023-03-07T06:56:10.239Z,33.10
2023-03-07T06:58:38.750Z,34.73
2023-03-07T07:01:07.147Z,32.30
2023-03-07T07:03:36.129Z,32.80
2023-03-07T07:06:03.727Z,30.37
2023-03-07T07:08:31.510Z,36.20
2023-03-07T07:10:59.703Z,27.80
2023-03-07T07:13:28.040Z,27.40
2023-03-07T07:15:55.563Z,26.37
2023-03-07T07:18:24.828Z,28.43
2023-03-07T07:20:56.218Z,29.57
2023-03-07T07:23:25.066Z,28.17
2023-03-07T07:25:52.212Z,23.50
2023-03-07T07:28:19.623Z,21.23
2023-03-07T07:30:47.005Z,24.10
2023-03-07T07:33:17.063Z,21.90
2023-03-07T07:35:47.765Z,17.80
2023-03-07T07:38:18.654Z,16.83
2023-03-07T07:40:45.784Z,18.43
2023-03-07T07:43:17.062Z,16.70
2023-03-07T07:45:59.634Z,14.47
2023-03-07T07:48:27.555Z,13.27
2023-03-07T07:50:54.878Z,13.07
2023-03-07T07:53:22.242Z,10.63
2023-03-07T07:55:50.290Z,9.70
2023-03-07T07:58:17.748Z,8.10
2023-03-07T08:00:47.067Z,5.13
2023-03-07T08:03:14.206Z,5.87
2023-03-07T08:05:48.695Z,8.17
2023-03-07T08:08:16.988Z,5.53
2023-03-07T08:10:47.245Z,8.27
2023-03-07T08:13:16.851Z,4.20
2023-03-07T08:15:44.442Z,5.77
2023-03-07T08:18:12.579Z,3.73
2023-03-07T08:20:41.237Z,4.67
2023-03-07T08:23:08.537Z,6.63
2023-03-07T08:25:36.525Z,4.47
2023-03-07T08:28:05.481Z,6.20
2023-03-07T08:30:35.384Z,6.63
2023-03-07T08:33:02.585Z,3.83
2023-03-07T08:35:31.277Z,3.70
2023-03-07T08:38:00.776Z,5.17
2023-03-07T08:40:30.131Z,5.37
2023-03-07T08:42:59.549Z,5.43
2023-03-07T08:45:27.396Z,4.10
2023-03-07T08:47:56.364Z,3.33
2023-03-07T08:50:26.934Z,4.60
2023-03-07T08:52:54.288Z,6.70
2023-03-07T08:55:22.007Z,4.87
2023-03-07T08:57:49.485Z,5.07
2023-03-07T09:00:18.539Z,3.73
2023-03-07T09:02:46.242Z,5.90
2023-03-07T09:05:13.602Z,3.67
2023-03-07T09:07:40.922Z,3.67
2023-03-07T09:10:11.631Z,3.47
2023-03-07T09:12:38.968Z,4.80
2023-03-07T09:15:08.303Z,4.47
2023-03-07T09:17:35.479Z,5.57
2023-03-07T09:20:03.427Z,4.47
2023-03-07T09:22:30.646Z,4.87
2023-03-07T09:24:57.795Z,5.93
2023-03-07T09:27:25.080Z,4.10
2023-03-07T09:29:52.400Z,4.33
2023-03-07T09:32:19.596Z,4.10
2023-03-07T09:34:46.811Z,3.87
2023-03-07T09:37:14.759Z,4.07
2023-03-07T09:39:42.127Z,5.43
2023-03-07T09:42:46.824Z,3.70
2023-03-07T09:45:38.857Z,4.13
2023-03-07T09:48:43.377Z,6.07
2023-03-07T09:51:36.563Z,5.53
2023-03-07T09:54:20.929Z,5.97
2023-03-07T09:56:54.537Z,6.73
2023-03-07T09:59:43.513Z,4.00
2023-03-07T10:02:48.965Z,4.50
2023-03-07T10:05:32.361Z,3.63
2023-03-07T10:08:01.666Z,5.50
2023-03-07T10:10:56.431Z,5.87
2023-03-07T10:13:46.233Z,5.53
2023-03-07T10:16:32.773Z,6.10
2023-03-07T10:19:18.309Z,5.07
2023-03-07T10:22:00.597Z,4.53
2023-03-07T10:24:58.751Z,6.57
2023-03-07T10:27:29.233Z,4.73
2023-03-07T10:30:06.646Z,5.50
2023-03-07T10:32:58.555Z,4.20
2023-03-07T10:35:44.575Z,2.80
2023-03-07T10:38:46.267Z,5.60
2023-03-07T10:41:17.416Z,5.87
2023-03-07T10:43:46.129Z,6.37
2023-03-07T10:46:26.947Z,5.33
2023-03-07T10:49:09.471Z,4.30
2023-03-07T10:52:07.379Z,8.53
2023-03-07T10:54:37.589Z,6.73
2023-03-07T10:57:16.465Z,9.20
2023-03-07T10:59:49.616Z,3.97
2023-03-07T11:02:35.930Z,6.23
2023-03-07T11:05:25.973Z,3.83
2023-03-07T11:07:53.170Z,5.63
2023-03-07T11:10:38.928Z,4.60
2023-03-07T11:13:21.652Z,3.73
2023-03-07T11:15:49.236Z,5.73
2023-03-07T11:18:26.875Z,4.60
2023-03-07T11:20:54.344Z,4.23
2023-03-07T11:23:24.483Z,4.40
2023-03-07T11:25:55.170Z,4.83
2023-03-07T11:28:30.810Z,5.90
2023-03-07T11:31:27.891Z,7.53
2023-03-07T11:34:32.281Z,4.00
2023-03-07T11:37:28.436Z,4.90
2023-03-07T11:40:43.700Z,4.30
2023-03-07T11:43:49.181Z,3.67
2023-03-07T11:46:36.775Z,2.23
2023-03-07T11:49:32.406Z,2.27
2023-03-07T11:52:20.545Z,2.73
2023-03-07T11:55:25.780Z,3.93
2023-03-07T11:58:05.045Z,2.90
2023-03-07T12:00:35.038Z,6.13
2023-03-07T12:03:33.052Z,5.57
2023-03-07T12:06:37.632Z,3.90
2023-03-07T12:09:45.312Z,3.63
2023-03-07T12:13:04.813Z,3.97
2023-03-07T12:16:38.102Z,5.07
2023-03-07T12:19:41.464Z,4.33
2023-03-07T12:22:32.576Z,7.17
2023-03-07T12:25:43.914Z,6.50
2023-03-07T12:28:32.822Z,7.27
2023-03-07T12:31:25.885Z,4.43
2023-03-07T12:34:25.976Z,9.60
2023-03-07T12:37:03.066Z,5.00
2023-03-07T12:40:18.946Z,9.30
2023-03-07T12:43:34.221Z,3.17
2023-03-07T12:46:38.719Z,4.83
2023-03-07T12:49:40.885Z,4.73
2023-03-07T12:52:46.345Z,5.10
2023-03-07T12:55:36.409Z,8.10
2023-03-07T12:58:36.668Z,4.53
2023-03-07T13:01:23.666Z,2.27
2023-03-07T13:04:18.602Z,2.97
2023-03-07T13:06:47.096Z,3.50
2023-03-07T13:09:24.609Z,2.97
2023-03-07T13:12:16.770Z,4.07
2023-03-07T13:14:47.204Z,4.80
2023-03-07T13:17:38.103Z,3.10
2023-03-07T13:20:29.558Z,5.83
2023-03-07T13:23:00.334Z,2.53
2023-03-07T13:25:27.851Z,2.97
2023-03-07T13:27:58.667Z,3.73
2023-03-07T13:30:26.892Z,3.70
2023-03-07T13:32:56.635Z,3.57
2023-03-07T13:35:35.606Z,5.30
2023-03-07T13:38:15.461Z,3.77
2023-03-07T13:40:46.425Z,4.60
2023-03-07T13:43:19.887Z,4.57
2023-03-07T13:45:57.489Z,5.43
2023-03-07T13:48:30.584Z,3.53
2023-03-07T13:51:00.883Z,5.00
2023-03-07T13:53:27.896Z,3.67
2023-03-07T13:56:04.678Z,4.90
2023-03-07T13:59:10.004Z,3.97
2023-03-07T14:01:57.125Z,3.40
2023-03-07T14:04:39.412Z,2.97
2023-03-07T14:07:33.993Z,4.27
2023-03-07T14:10:30.515Z,2.60
2023-03-07T14:14:00.894Z,8.03
2023-03-07T14:16:56.461Z,11.33
2023-03-07T14:20:09.525Z,3.10
2023-03-07T14:23:04.905Z,2.33
2023-03-07T14:25:35.413Z,6.53
2023-03-07T14:28:19.487Z,3.87
2023-03-07T14:31:00.216Z,15.23
2023-03-07T14:33:39.177Z,5.40
2023-03-07T14:36:35.432Z,3.23
2023-03-07T14:39:02.540Z,4.47
2023-03-07T14:42:09.638Z,17.43
2023-03-07T14:44:56.532Z,3.87
2023-03-07T14:48:26.847Z,5.40
2023-03-07T14:50:54.521Z,2.63
2023-03-07T14:53:28.549Z,5.23
2023-03-07T14:55:58.843Z,3.57
2023-03-07T14:58:32.827Z,2.33
2023-03-07T15:01:11.482Z,4.40
2023-03-07T15:03:51.588Z,4.90
2023-03-07T15:06:25.352Z,4.93
2023-03-07T15:08:56.187Z,4.03
2023-03-07T15:11:33.334Z,2.93
2023-03-07T15:14:04.760Z,3.80
2023-03-07T15:17:03.071Z,4.43
2023-03-07T15:19:47.739Z,3.93
2023-03-07T15:22:31.175Z,3.70
2023-03-07T15:24:58.773Z,1.87
2023-03-07T15:27:31.631Z,3.93
2023-03-07T15:30:02.042Z,4.30
2023-03-07T15:32:40.998Z,2.20
2023-03-07T15:35:08.042Z,3.23
2023-03-07T15:37:51.484Z,2.77
2023-03-07T15:40:31.336Z,2.83
2023-03-07T15:43:04.952Z,3.50
2023-03-07T15:45:41.832Z,2.73
2023-03-07T15:48:26.206Z,3.10
2023-03-07T15:50:56.278Z,3.07
2023-03-07T15:53:34.106Z,4.87
2023-03-07T15:56:06.682Z,4.00
2023-03-07T15:58:42.765Z,3.23
2023-03-07T16:01:26.080Z,3.33
2023-03-07T16:04:03.547Z,1.70
2023-03-07T16:06:38.045Z,1.47
2023-03-07T16:09:07.164Z,3.07
2023-03-07T16:11:35.883Z,1.10
2023-03-07T16:14:04.339Z,4.37
2023-03-07T16:16:31.865Z,7.37
2023-03-07T16:18:59.104Z,2.67
2023-03-07T16:21:26.615Z,2.87
2023-03-07T16:23:53.944Z,1.80
2023-03-07T16:26:23.938Z,5.27
2023-03-07T16:28:52.409Z,5.67
2023-03-07T16:31:20.769Z,2.27
2023-03-07T16:33:48.624Z,2.77
2023-03-07T16:36:16.707Z,3.97
2023-03-07T16:38:46.244Z,2.73
2023-03-07T16:41:22.700Z,6.47
2023-03-07T16:43:57.880Z,2.93
2023-03-07T16:46:26.081Z,2.70
2023-03-07T16:48:53.231Z,2.63
2023-03-07T16:51:23.510Z,2.80
2023-03-07T16:53:51.148Z,6.20
2023-03-07T16:56:42.081Z,2.83
2023-03-07T16:59:18.285Z,2.27
2023-03-07T17:01:48.252Z,3.90
2023-03-07T17:04:15.593Z,2.50
2023-03-07T17:06:43.357Z,3.70
2023-03-07T17:09:12.977Z,1.60
2023-03-07T17:11:46.543Z,2.77
2023-03-07T17:14:16.443Z,1.33
2023-03-07T17:16:47.176Z,2.50
2023-03-07T17:19:28.337Z,3.50
2023-03-07T17:21:57.577Z,1.97
2023-03-07T17:24:26.044Z,5.50
2023-03-07T17:26:54.132Z,3.10
2023-03-07T17:29:37.697Z,3.70
2023-03-07T17:32:05.315Z,1.00
2023-03-07T17:34:34.710Z,5.53
2023-03-07T17:37:02.299Z,3.83
2023-03-07T17:39:31.303Z,4.07
2023-03-07T17:41:59.488Z,3.47
2023-03-07T17:44:27.634Z,2.60
2023-03-07T17:46:55.342Z,1.10
2023-03-07T17:49:23.241Z,3.23
2023-03-07T17:51:50.360Z,12.17
2023-03-07T17:54:17.555Z,4.43
2023-03-07T17:56:45.501Z,5.22
2023-03-07T17:59:12.674Z,1.77
2023-03-07T18:01:40.321Z,5.00
2023-03-07T18:04:07.706Z,3.93
2023-03-07T18:06:36.625Z,4.97
2023-03-07T18:09:06.827Z,4.97
2023-03-07T18:11:34.489Z,3.87
2023-03-07T18:14:01.860Z,2.80
2023-03-07T18:16:29.172Z,5.90
2023-03-07T18:19:00.542Z,1.93
2023-03-07T18:21:29.860Z,3.40
2023-03-07T18:23:57.392Z,3.40
2023-03-07T18:26:28.105Z,3.47
2023-03-07T18:28:56.664Z,2.73
2023-03-07T18:31:28.720Z,3.10
2023-03-07T18:33:56.792Z,2.33
2023-03-07T18:36:25.470Z,3.00
2023-03-07T18:38:53.324Z,1.70
2023-03-07T18:41:23.501Z,1.53
2023-03-07T18:43:53.473Z,1.83
2023-03-07T18:46:23.732Z,1.27
2023-03-07T18:48:51.696Z,1.80
2023-03-07T18:51:26.656Z,5.37
2023-03-07T18:53:58.807Z,2.93
2023-03-07T18:56:27.259Z,3.17
2023-03-07T18:58:56.910Z,2.30
2023-03-07T19:01:33.926Z,2.57
2023-03-07T19:04:04.398Z,3.10
2023-03-07T19:06:41.403Z,5.30
2023-03-07T19:09:16.119Z,4.20
2023-03-07T19:11:43.754Z,2.30
2023-03-07T19:14:11.505Z,5.47
2023-03-07T19:16:39.056Z,1.37
2023-03-07T19:19:06.426Z,3.03
2023-03-07T19:21:33.880Z,1.83
2023-03-07T19:24:04.086Z,3.10
2023-03-07T19:26:31.599Z,1.77
2023-03-07T19:28:58.987Z,2.87
2023-03-07T19:31:31.191Z,2.87
2023-03-07T19:34:02.355Z,3.33
2023-03-07T19:36:32.155Z,2.87
2023-03-07T19:38:59.657Z,3.57
2023-03-07T19:41:30.331Z,3.30
2023-03-07T19:44:00.236Z,2.00
2023-03-07T19:46:28.149Z,3.97
2023-03-07T19:48:56.587Z,2.67
2023-03-07T19:51:26.215Z,1.73
2023-03-07T19:53:57.171Z,2.70
2023-03-07T19:56:31.802Z,4.73
2023-03-07T19:59:02.511Z,3.43
2023-03-07T20:01:30.408Z,2.37
2023-03-07T20:03:58.365Z,2.40
2023-03-07T20:06:29.897Z,3.63
2023-03-07T20:08:59.700Z,6.03
2023-03-07T20:11:30.930Z,4.07
2023-03-07T20:14:02.174Z,2.63
2023-03-07T20:16:29.682Z,3.57
2023-03-07T20:19:00.276Z,3.27
2023-03-07T20:21:29.284Z,3.83
2023-03-07T20:24:00.584Z,4.50
2023-03-07T20:26:37.106Z,4.83
2023-03-07T20:29:06.874Z,2.07
2023-03-07T20:31:34.693Z,3.53
2023-03-07T20:34:02.683Z,4.30
2023-03-07T20:36:35.804Z,2.67
2023-03-07T20:39:08.270Z,5.83
2023-03-07T20:41:36.009Z,1.93
2023-03-07T20:44:06.550Z,3.93
2023-03-07T20:46:35.603Z,3.83
2023-03-07T20:49:03.713Z,1.10
2023-03-07T20:51:34.506Z,5.17
2023-03-07T20:54:10.131Z,2.50
2023-03-07T20:56:39.972Z,2.50
2023-03-07T20:59:09.319Z,4.50
2023-03-07T21:01:36.809Z,2.30
2023-03-07T21:04:25.763Z,7.50
2023-03-07T21:07:15.055Z,3.90
2023-03-07T21:10:16.436Z,2.83
2023-03-07T21:13:23.034Z,1.57
2023-03-07T21:16:15.619Z,2.30
2023-03-07T21:19:17.345Z,1.90
2023-03-07T21:25:32.225Z,1.90
2023-03-07T21:28:19.082Z,3.53
2023-03-07T21:31:12.785Z,3.13
2023-03-07T21:34:11.655Z,2.17
2023-03-07T21:37:31.787Z,2.17
2023-03-07T21:40:34.427Z,6.00
2023-03-07T21:43:13.452Z,6.03
2023-03-07T21:45:49.109Z,2.97
2023-03-07T21:48:35.829Z,3.13
2023-03-07T21:51:12.999Z,3.23
2023-03-07T21:53:59.007Z,3.53
2023-03-07T21:56:34.836Z,3.73
2023-03-07T21:59:30.047Z,2.40
2023-03-07T22:02:20.125Z,2.80
2023-03-07T22:05:01.328Z,4.57
2023-03-07T22:07:50.449Z,2.83
2023-03-07T22:10:22.532Z,3.47
2023-03-07T22:13:02.993Z,3.00
2023-03-07T22:15:48.875Z,5.30
2023-03-07T22:18:48.095Z,1.97
2023-03-07T22:21:48.000Z,4.67
2023-03-07T22:24:47.725Z,1.80
2023-03-07T22:27:33.204Z,4.83
2023-03-07T22:30:00.586Z,3.00
2023-03-07T22:32:28.071Z,5.93
2023-03-07T22:34:55.644Z,3.20
2023-03-07T22:37:23.045Z,3.70
2023-03-07T22:39:51.450Z,1.97
2023-03-07T22:42:18.764Z,4.50
2023-03-07T22:44:46.427Z,5.57
2023-03-07T22:47:13.753Z,2.60
2023-03-07T22:49:41.956Z,2.17
2023-03-07T22:52:09.470Z,3.77
2023-03-07T22:54:39.374Z,5.00
2023-03-07T22:57:07.120Z,6.10
2023-03-07T22:59:34.708Z,2.80
2023-03-07T23:02:02.302Z,6.97
2023-03-07T23:04:30.567Z,3.73
2023-03-07T23:06:58.258Z,2.80
2023-03-07T23:09:25.643Z,3.27
2023-03-07T23:11:53.062Z,4.70
2023-03-07T23:14:20.639Z,2.40
2023-03-07T23:16:48.164Z,3.80
2023-03-07T23:19:15.527Z,2.83
2023-03-07T23:21:45.711Z,4.90
2023-03-07T23:24:12.995Z,3.67
2023-03-07T23:26:41.043Z,3.77
2023-03-07T23:29:10.111Z,3.90
2023-03-07T23:31:41.144Z,6.93
2023-03-07T23:34:19.849Z,3.87
2023-03-07T23:36:47.338Z,4.90
2023-03-07T23:39:15.268Z,3.97
2023-03-07T23:41:42.638Z,3.33
2023-03-07T23:44:11.666Z,3.20
2023-03-07T23:46:39.329Z,3.57
2023-03-07T23:49:06.878Z,5.50
2023-03-07T23:51:34.379Z,3.30
2023-03-07T23:54:01.691Z,5.37
2023-03-07T23:56:29.132Z,5.27
2023-03-07T23:58:56.544Z,4.17
